Time;durP1;ratioP1;P1;durP2;ratioP2;P2;SDS_P1;SDS_P2;PMS_P1;PMS_P2;Temp;Humidity;BMP_temperature;BMP_pressure;BME280_temperature;BME280_humidity;BME280_pressure;Samples;Min_cycle;Max_cycle;Signal;HPM_P1;HPM_P2
2021/03/11 00:01:14;;;;;;;52.92;25.95;;;;;;;;;;4997058;28;20075;-74
2021/03/11 00:03:40;;;;;;;45.78;24.05;;;;;;;;;;4996885;28;20367;-74
2021/03/11 00:06:06;;;;;;;45.83;24.20;;;;;;;;;;4997603;28;20112;-73
2021/03/11 00:08:32;;;;;;;46.67;25.38;;;;;;;;;;4996046;28;20525;-72
2021/03/11 00:10:58;;;;;;;59.97;27.27;;;;;;;;;;5014611;28;20028;-73
2021/03/11 00:13:25;;;;;;;52.30;25.35;;;;;;;;;;4996820;28;20106;-72
2021/03/11 00:15:51;;;;;;;50.05;25.85;;;;;;;;;;4996169;28;20606;-75
2021/03/11 00:18:17;;;;;;;48.20;26.70;;;;;;;;;;4996881;28;20022;-73
2021/03/11 00:20:43;;;;;;;45.20;25.85;;;;;;;;;;5014149;28;20018;-73
2021/03/11 00:23:09;;;;;;;53.47;25.25;;;;;;;;;;5014245;28;20084;-73
2021/03/11 00:25:36;;;;;;;47.20;27.63;;;;;;;;;;4996616;28;20029;-72
2021/03/11 00:28:03;;;;;;;45.08;24.83;;;;;;;;;;4996123;28;20075;-72
2021/03/11 00:30:29;;;;;;;47.15;26.10;;;;;;;;;;4996418;28;20534;-72
2021/03/11 00:32:56;;;;;;;49.70;27.58;;;;;;;;;;4996486;28;20030;-72
2021/03/11 00:35:22;;;;;;;47.72;24.88;;;;;;;;;;4997118;28;20478;-72
2021/03/11 00:37:49;;;;;;;46.30;26.73;;;;;;;;;;4996055;28;20418;-72
2021/03/11 00:40:17;;;;;;;48.13;25.73;;;;;;;;;;5014359;28;20045;-73
2021/03/11 00:42:44;;;;;;;42.40;25.15;;;;;;;;;;5014421;28;20033;-74
2021/03/11 00:45:11;;;;;;;41.33;23.27;;;;;;;;;;5013641;28;20025;-73
2021/03/11 00:47:37;;;;;;;40.90;23.27;;;;;;;;;;4996591;28;20028;-73
2021/03/11 00:50:05;;;;;;;41.10;23.17;;;;;;;;;;4991901;28;20117;-73
2021/03/11 00:52:33;;;;;;;40.28;23.02;;;;;;;;;;4989391;28;20026;-78
2021/03/11 00:55:03;;;;;;;39.90;21.20;;;;;;;;;;5003999;28;20463;-75
2021/03/11 00:57:29;;;;;;;36.00;22.65;;;;;;;;;;5004423;28;20366;-73
2021/03/11 00:59:55;;;;;;;38.40;22.73;;;;;;;;;;5001155;28;20096;-74
2021/03/11 01:02:38;;;;;;;45.17;23.73;;;;;;;;;;5009344;28;20026;-76
2021/03/11 01:05:06;;;;;;;39.17;21.13;;;;;;;;;;5004309;28;20093;-76
2021/03/11 01:07:45;;;;;;;45.13;21.95;;;;;;;;;;4985889;28;20022;-76
2021/03/11 01:10:13;;;;;;;42.58;21.85;;;;;;;;;;4987106;28;20026;-76
2021/03/11 01:12:47;;;;;;;34.28;20.25;;;;;;;;;;5003479;28;20036;-77
2021/03/11 01:15:17;;;;;;;34.58;19.10;;;;;;;;;;5003760;28;20022;-74
2021/03/11 01:17:46;;;;;;;40.13;22.95;;;;;;;;;;4989616;28;20459;-74
2021/03/11 01:20:22;;;;;;;32.45;19.13;;;;;;;;;;4985805;28;20025;-74
2021/03/11 01:22:59;;;;;;;36.40;21.67;;;;;;;;;;4989172;28;20368;-77
2021/03/11 01:25:28;;;;;;;37.80;22.15;;;;;;;;;;5005105;28;20014;-76
2021/03/11 01:27:54;;;;;;;41.08;21.80;;;;;;;;;;4987674;28;20022;-72
2021/03/11 01:30:28;;;;;;;41.67;21.75;;;;;;;;;;4990903;28;20022;-76
2021/03/11 01:32:56;;;;;;;41.13;21.40;;;;;;;;;;4990221;28;20027;-76
2021/03/11 01:35:22;;;;;;;34.42;20.40;;;;;;;;;;5005374;28;20054;-73
2021/03/11 01:37:48;;;;;;;36.55;20.00;;;;;;;;;;4988021;28;20030;-73
2021/03/11 01:40:15;;;;;;;41.90;21.83;;;;;;;;;;4988548;28;20006;-73
2021/03/11 01:42:44;;;;;;;38.17;20.08;;;;;;;;;;4989955;28;20034;-74
2021/03/11 01:45:23;;;;;;;38.72;19.42;;;;;;;;;;4991574;28;20337;-79
2021/03/11 01:47:49;;;;;;;36.80;19.58;;;;;;;;;;4987701;28;20050;-75
2021/03/11 01:50:15;;;;;;;39.95;20.52;;;;;;;;;;4988342;28;20100;-74
2021/03/11 01:52:42;;;;;;;31.52;17.58;;;;;;;;;;5006866;28;20028;-71
2021/03/11 01:55:08;;;;;;;35.70;19.25;;;;;;;;;;4998408;28;20029;-72
2021/03/11 01:57:34;;;;;;;40.23;21.03;;;;;;;;;;5015531;28;20460;-73
2021/03/11 02:00:02;;;;;;;31.38;20.17;;;;;;;;;;5015618;28;20021;-74
2021/03/11 02:02:29;;;;;;;38.33;19.48;;;;;;;;;;4998854;28;20177;-73
2021/03/11 02:04:56;;;;;;;35.00;19.27;;;;;;;;;;4999220;28;20014;-73
2021/03/11 02:07:22;;;;;;;40.90;21.73;;;;;;;;;;4999133;28;20124;-73
2021/03/11 02:09:48;;;;;;;37.80;19.90;;;;;;;;;;4998855;28;20022;-73
2021/03/11 02:12:18;;;;;;;41.80;20.23;;;;;;;;;;5016321;28;20021;-73
2021/03/11 02:14:44;;;;;;;35.70;19.50;;;;;;;;;;4998823;28;20496;-73
2021/03/11 02:17:10;;;;;;;36.30;20.02;;;;;;;;;;5015851;28;20025;-72
2021/03/11 02:19:39;;;;;;;37.88;20.13;;;;;;;;;;5016321;28;20014;-72
2021/03/11 02:22:09;;;;;;;37.85;20.90;;;;;;;;;;4998647;28;20022;-72
2021/03/11 02:24:41;;;;;;;38.42;19.05;;;;;;;;;;4998653;28;20470;-72
2021/03/11 02:27:22;;;;;;;33.58;17.95;;;;;;;;;;4998930;28;20458;-73
2021/03/11 02:29:48;;;;;;;36.25;19.55;;;;;;;;;;4998525;28;20105;-74
2021/03/11 02:32:16;;;;;;;34.83;18.77;;;;;;;;;;5015754;28;20028;-72
2021/03/11 02:34:45;;;;;;;34.92;19.30;;;;;;;;;;4998745;28;20017;-69
2021/03/11 02:37:30;;;;;;;32.78;17.67;;;;;;;;;;4997898;28;20018;-72
2021/03/11 02:39:58;;;;;;;32.33;18.88;;;;;;;;;;5016568;28;20081;-71
2021/03/11 02:42:25;;;;;;;37.80;18.25;;;;;;;;;;4998591;28;20077;-71
2021/03/11 02:44:52;;;;;;;39.55;18.00;;;;;;;;;;4998036;28;20386;-74
2021/03/11 02:47:18;;;;;;;;;;;;;;;;;;4998851;28;20029;-72
2021/03/11 02:49:45;;;;;;;39.35;19.50;;;;;;;;;;4998104;28;19902;-72
2021/03/11 02:52:11;;;;;;;37.47;19.85;;;;;;;;;;4998319;28;20481;-72
2021/03/11 02:54:38;;;;;;;38.75;19.10;;;;;;;;;;5015903;28;20100;-72
2021/03/11 02:57:04;;;;;;;36.45;20.50;;;;;;;;;;4997668;28;20041;-71
2021/03/11 02:59:32;;;;;;;39.38;21.17;;;;;;;;;;4998309;28;20025;-72
2021/03/11 03:02:01;;;;;;;38.55;20.30;;;;;;;;;;4998176;28;20026;-72
2021/03/11 03:04:28;;;;;;;35.67;18.58;;;;;;;;;;4997821;28;20017;-73
2021/03/11 03:06:55;;;;;;;34.97;19.88;;;;;;;;;;5015437;28;20022;-72
2021/03/11 03:09:21;;;;;;;39.50;18.67;;;;;;;;;;4998064;28;20018;-71
2021/03/11 03:11:48;;;;;;;40.47;20.33;;;;;;;;;;4997665;28;20018;-72
2021/03/11 03:14:14;;;;;;;35.17;18.38;;;;;;;;;;5015563;28;20045;-72
2021/03/11 03:16:41;;;;;;;36.80;21.98;;;;;;;;;;4997689;28;20025;-73
2021/03/11 03:19:08;;;;;;;36.55;21.27;;;;;;;;;;5014923;28;20105;-72
2021/03/11 03:21:34;;;;;;;39.58;20.92;;;;;;;;;;5015163;28;20455;-72
2021/03/11 03:24:01;;;;;;;36.90;20.13;;;;;;;;;;5015359;28;20032;-72
2021/03/11 03:26:27;;;;;;;39.80;20.95;;;;;;;;;;4997573;28;20351;-72
2021/03/11 03:28:53;;;;;;;37.22;20.98;;;;;;;;;;4997441;28;20048;-72
2021/03/11 03:31:19;;;;;;;37.17;21.17;;;;;;;;;;4997545;28;20021;-72
2021/03/11 03:33:46;;;;;;;36.95;19.23;;;;;;;;;;5014904;28;20018;-71
2021/03/11 03:36:12;;;;;;;34.15;18.70;;;;;;;;;;4997482;28;20022;-72
2021/03/11 03:38:38;;;;;;;33.97;18.27;;;;;;;;;;4997136;28;20076;-73
2021/03/11 03:41:04;;;;;;;34.85;20.23;;;;;;;;;;4997365;28;20017;-71
2021/03/11 03:43:31;;;;;;;38.28;18.48;;;;;;;;;;4997183;28;20026;-71
2021/03/11 03:46:03;;;;;;;36.65;20.00;;;;;;;;;;5014661;28;20041;-71
2021/03/11 03:48:36;;;;;;;40.22;18.30;;;;;;;;;;5015011;28;20135;-73
2021/03/11 03:51:03;;;;;;;42.67;19.92;;;;;;;;;;4996790;28;20029;-74
2021/03/11 03:53:35;;;;;;;33.67;18.67;;;;;;;;;;5014881;28;20113;-72
2021/03/11 03:56:02;;;;;;;35.92;18.98;;;;;;;;;;4997855;28;20026;-73
2021/03/11 03:58:29;;;;;;;36.90;18.95;;;;;;;;;;5014438;28;20026;-74
2021/03/11 04:00:56;;;;;;;35.97;18.67;;;;;;;;;;4997027;28;20081;-73
2021/03/11 04:03:22;;;;;;;39.20;18.25;;;;;;;;;;4997181;28;20021;-74
2021/03/11 04:05:49;;;;;;;32.85;18.35;;;;;;;;;;4997038;28;20014;-72
2021/03/11 04:08:16;;;;;;;38.10;20.25;;;;;;;;;;4996465;28;20025;-73
2021/03/11 04:10:43;;;;;;;38.45;20.00;;;;;;;;;;5014756;28;20033;-74
2021/03/11 04:13:09;;;;;;;34.78;18.05;;;;;;;;;;5014101;28;20548;-73
2021/03/11 04:15:36;;;;;;;34.10;19.55;;;;;;;;;;5014003;28;20022;-72
2021/03/11 04:18:03;;;;;;;33.25;18.65;;;;;;;;;;4996771;28;20024;-72
2021/03/11 04:20:29;;;;;;;33.90;18.38;;;;;;;;;;5014358;28;20021;-72
2021/03/11 04:22:56;;;;;;;37.13;20.98;;;;;;;;;;5014164;28;20473;-73
2021/03/11 04:25:22;;;;;;;37.40;19.73;;;;;;;;;;4996839;28;20056;-72
2021/03/11 04:27:48;;;;;;;37.83;19.75;;;;;;;;;;4996120;28;20045;-72
2021/03/11 04:30:15;;;;;;;39.50;19.42;;;;;;;;;;5014659;28;20046;-71
2021/03/11 04:32:41;;;;;;;34.45;17.65;;;;;;;;;;4996789;28;20378;-72
2021/03/11 04:35:09;;;;;;;36.97;19.10;;;;;;;;;;4996725;28;20060;-72
2021/03/11 04:37:36;;;;;;;45.53;20.67;;;;;;;;;;4996198;28;20045;-72
2021/03/11 04:40:02;;;;;;;;;;;;;;;;;;4996872;28;20533;-74
2021/03/11 04:42:29;;;;;;;35.25;18.02;;;;;;;;;;5013856;28;19996;-73
2021/03/11 04:44:55;;;;;;;38.97;22.45;;;;;;;;;;4996506;28;20065;-72
2021/03/11 04:47:21;;;;;;;37.80;19.60;;;;;;;;;;5013773;28;20026;-71
2021/03/11 04:49:48;;;;;;;45.47;22.15;;;;;;;;;;5013474;28;20014;-71
2021/03/11 04:52:14;;;;;;;42.88;23.90;;;;;;;;;;5013951;28;20026;-72
2021/03/11 04:54:41;;;;;;;41.72;21.05;;;;;;;;;;4996320;28;20482;-71
2021/03/11 04:57:07;;;;;;;37.03;21.55;;;;;;;;;;4995699;28;20018;-71
2021/03/11 04:59:33;;;;;;;39.05;18.90;;;;;;;;;;4993818;28;20096;-71
2021/03/11 05:02:00;;;;;;;33.25;20.27;;;;;;;;;;4998231;28;20022;-71
2021/03/11 05:04:27;;;;;;;42.17;23.13;;;;;;;;;;5017398;28;20014;-70
2021/03/11 05:06:54;;;;;;;46.08;24.48;;;;;;;;;;4999523;28;20072;-74
2021/03/11 05:09:20;;;;;;;45.00;23.30;;;;;;;;;;4999600;28;20032;-71
2021/03/11 05:11:46;;;;;;;50.03;26.73;;;;;;;;;;4999332;28;20029;-72
2021/03/11 05:14:12;;;;;;;48.55;26.52;;;;;;;;;;5000329;28;20455;-72
2021/03/11 05:16:38;;;;;;;51.72;27.08;;;;;;;;;;5016168;28;20025;-72
2021/03/11 05:19:04;;;;;;;50.67;24.85;;;;;;;;;;4998288;28;20096;-72
2021/03/11 05:21:31;;;;;;;45.03;26.10;;;;;;;;;;5016737;28;20022;-72
2021/03/11 05:23:57;;;;;;;41.92;23.58;;;;;;;;;;5017574;28;20010;-74
2021/03/11 05:26:23;;;;;;;49.33;24.00;;;;;;;;;;4998335;28;20029;-72
2021/03/11 05:28:50;;;;;;;45.05;23.25;;;;;;;;;;5016899;28;20044;-74
2021/03/11 05:31:16;;;;;;;43.50;22.95;;;;;;;;;;5015676;28;20022;-73
2021/03/11 05:33:42;;;;;;;41.08;23.95;;;;;;;;;;5016387;28;20065;-72
2021/03/11 05:36:08;;;;;;;47.90;24.65;;;;;;;;;;5017576;28;20097;-72
2021/03/11 05:38:34;;;;;;;46.03;23.48;;;;;;;;;;4999196;28;20022;-73
2021/03/11 05:41:01;;;;;;;42.05;25.88;;;;;;;;;;4999363;28;20025;-73
2021/03/11 05:43:28;;;;;;;59.67;30.67;;;;;;;;;;5016706;28;20037;-73
2021/03/11 05:45:54;;;;;;;73.22;30.58;;;;;;;;;;4998846;28;20057;-72
2021/03/11 05:48:21;;;;;;;47.05;27.10;;;;;;;;;;5016458;28;20049;-73
2021/03/11 05:50:47;;;;;;;54.03;27.88;;;;;;;;;;4999019;28;20014;-73
2021/03/11 05:53:14;;;;;;;51.75;28.77;;;;;;;;;;5016088;28;20109;-73
2021/03/11 05:55:43;;;;;;;58.17;28.48;;;;;;;;;;5017077;28;20021;-72
2021/03/11 05:58:09;;;;;;;55.60;27.58;;;;;;;;;;5016007;28;20076;-72
2021/03/11 06:00:35;;;;;;;53.72;26.90;;;;;;;;;;5007797;28;20080;-72
2021/03/11 06:03:02;;;;;;;57.47;28.15;;;;;;;;;;5016862;28;20029;-72
2021/03/11 06:05:30;;;;;;;55.30;30.98;;;;;;;;;;4999214;28;20072;-71
2021/03/11 06:07:56;;;;;;;;;;;;;;;;;;4999500;28;20026;-72
2021/03/11 06:10:23;;;;;;;76.05;39.60;;;;;;;;;;5017360;28;19928;-72
2021/03/11 06:12:50;;;;;;;64.72;32.67;;;;;;;;;;4998074;28;20033;-70
2021/03/11 06:15:35;;;;;;;58.28;29.08;;;;;;;;;;4999123;28;20530;-72
2021/03/11 06:18:05;;;;;;;58.08;29.75;;;;;;;;;;5016346;28;20408;-72
2021/03/11 06:20:31;;;;;;;57.08;31.13;;;;;;;;;;4998710;28;20017;-72
2021/03/11 06:22:57;;;;;;;60.58;30.90;;;;;;;;;;5016486;28;20022;-72
2021/03/11 06:25:24;;;;;;;59.65;29.77;;;;;;;;;;4999119;28;20344;-71
2021/03/11 06:27:50;;;;;;;105.25;57.53;;;;;;;;;;4998948;28;20095;-75
2021/03/11 06:30:36;;;;;;;64.32;33.50;;;;;;;;;;4998921;28;20438;-72
2021/03/11 06:33:04;;;;;;;166.38;78.88;;;;;;;;;;4999067;28;20451;-76
2021/03/11 06:35:30;;;;;;;309.58;162.77;;;;;;;;;;4998810;28;20155;-74
2021/03/11 06:37:57;;;;;;;148.45;73.30;;;;;;;;;;5000098;28;20018;-76
2021/03/11 06:40:27;;;;;;;155.95;80.15;;;;;;;;;;4999374;28;20578;-75
2021/03/11 06:43:07;;;;;;;101.40;53.97;;;;;;;;;;4998531;28;20467;-74
2021/03/11 06:45:34;;;;;;;103.00;58.35;;;;;;;;;;5016738;28;20026;-74
2021/03/11 06:48:19;;;;;;;57.97;29.70;;;;;;;;;;5016556;28;20017;-76
2021/03/11 06:50:45;;;;;;;67.28;31.92;;;;;;;;;;5018689;28;20121;-78
2021/03/11 06:53:11;;;;;;;101.22;55.17;;;;;;;;;;5001963;28;20030;-79
2021/03/11 06:55:37;;;;;;;70.20;38.05;;;;;;;;;;4999416;28;20108;-71
2021/03/11 06:58:20;;;;;;;85.63;44.85;;;;;;;;;;5016263;28;20080;-71
2021/03/11 07:00:47;;;;;;;131.38;65.93;;;;;;;;;;4998363;28;20017;-74
2021/03/11 07:03:13;;;;;;;168.70;77.70;;;;;;;;;;4998318;28;20034;-72
2021/03/11 07:05:43;;;;;;;75.53;36.58;;;;;;;;;;4998212;28;20025;-72
2021/03/11 07:08:19;;;;;;;69.80;37.70;;;;;;;;;;4998034;28;20022;-74
2021/03/11 07:10:47;;;;;;;75.07;36.13;;;;;;;;;;4999877;28;20462;-76
2021/03/11 07:13:13;;;;;;;141.15;61.63;;;;;;;;;;4997974;28;20061;-73
2021/03/11 07:15:40;;;;;;;124.65;60.50;;;;;;;;;;4998863;28;20057;-75
2021/03/11 07:18:07;;;;;;;65.27;35.60;;;;;;;;;;5000218;28;20489;-76
2021/03/11 07:20:34;;;;;;;62.65;29.33;;;;;;;;;;4997743;28;20266;-74
2021/03/11 07:23:05;;;;;;;95.07;42.65;;;;;;;;;;4997607;28;20026;-75
2021/03/11 07:25:35;;;;;;;77.18;41.08;;;;;;;;;;4997731;28;20029;-79
2021/03/11 07:28:03;;;;;;;68.95;36.40;;;;;;;;;;4998790;28;20049;-76
2021/03/11 07:30:30;;;;;;;76.90;38.95;;;;;;;;;;4997563;28;20064;-75
2021/03/11 07:33:01;;;;;;;66.30;33.22;;;;;;;;;;4997445;28;20475;-75
2021/03/11 07:35:28;;;;;;;75.20;37.42;;;;;;;;;;4997633;28;20367;-76
2021/03/11 07:37:57;;;;;;;70.47;37.45;;;;;;;;;;4997800;28;20045;-70
2021/03/11 07:40:24;;;;;;;61.88;33.30;;;;;;;;;;5015065;28;20403;-72
2021/03/11 07:42:50;;;;;;;70.32;37.45;;;;;;;;;;4997199;28;20108;-72
2021/03/11 07:45:17;;;;;;;52.08;29.52;;;;;;;;;;4996411;28;20418;-74
2021/03/11 07:47:43;;;;;;;88.45;42.03;;;;;;;;;;4996331;28;20034;-74
2021/03/11 07:50:11;;;;;;;92.53;47.88;;;;;;;;;;5014068;28;20014;-72
2021/03/11 07:52:38;;;;;;;73.00;36.60;;;;;;;;;;4996817;28;20074;-68
2021/03/11 07:55:05;;;;;;;72.93;39.42;;;;;;;;;;4997170;28;20022;-72
2021/03/11 07:57:35;;;;;;;63.53;35.25;;;;;;;;;;4996906;28;20028;-71
2021/03/11 08:00:01;;;;;;;107.78;50.88;;;;;;;;;;5014597;28;20017;-73
2021/03/11 08:02:30;;;;;;;76.35;37.20;;;;;;;;;;4996805;28;20117;-74
2021/03/11 08:04:56;;;;;;;64.75;34.72;;;;;;;;;;4996598;28;20032;-72
2021/03/11 08:07:23;;;;;;;59.30;32.30;;;;;;;;;;4996946;28;20022;-71
2021/03/11 08:09:57;;;;;;;69.28;37.95;;;;;;;;;;4996906;28;20018;-70
2021/03/11 08:12:40;;;;;;;90.18;51.35;;;;;;;;;;5014107;28;20471;-68
2021/03/11 08:15:29;;;;;;;60.50;32.00;;;;;;;;;;4996314;28;20045;-72
2021/03/11 08:17:56;;;;;;;71.55;40.05;;;;;;;;;;5001830;28;20041;-71
2021/03/11 08:20:25;;;;;;;79.68;41.05;;;;;;;;;;4996437;28;20081;-70
2021/03/11 08:22:57;;;;;;;60.92;36.22;;;;;;;;;;4996624;28;20025;-71
2021/03/11 08:25:38;;;;;;;65.50;35.40;;;;;;;;;;4996652;28;20045;-73
2021/03/11 08:28:05;;;;;;;67.10;34.83;;;;;;;;;;5013453;28;20029;-70
2021/03/11 08:30:40;;;;;;;72.68;41.00;;;;;;;;;;4996656;28;20375;-72
2021/03/11 08:33:07;;;;;;;70.20;37.35;;;;;;;;;;4994663;28;20022;-71
2021/03/11 08:35:41;;;;;;;79.57;40.10;;;;;;;;;;4995942;28;20092;-71
2021/03/11 08:38:22;;;;;;;67.05;35.22;;;;;;;;;;5014239;28;20022;-72
2021/03/11 08:40:55;;;;;;;86.13;44.53;;;;;;;;;;4996232;28;20043;-69
2021/03/11 08:43:37;;;;;;;87.45;44.47;;;;;;;;;;4994328;28;20410;-68
2021/03/11 08:46:06;;;;;;;62.22;33.05;;;;;;;;;;4995913;28;20044;-73
2021/03/11 08:48:42;;;;;;;65.90;34.38;;;;;;;;;;4996048;28;20017;-70
2021/03/11 08:51:13;;;;;;;61.97;35.25;;;;;;;;;;5014262;28;20018;-71
2021/03/11 08:53:40;;;;;;;62.50;37.63;;;;;;;;;;4996186;28;20029;-71
2021/03/11 08:56:19;;;;;;;57.97;34.65;;;;;;;;;;4995943;28;20021;-71
2021/03/11 08:58:54;;;;;;;57.92;31.63;;;;;;;;;;4996256;28;20022;-71
2021/03/11 09:01:39;;;;;;;70.32;34.17;;;;;;;;;;4996006;28;20014;-71
2021/03/11 09:04:29;;;;;;;53.65;32.75;;;;;;;;;;4995656;28;20018;-71
2021/03/11 09:06:55;;;;;;;69.70;41.08;;;;;;;;;;4996034;28;20033;-71
2021/03/11 09:09:40;;;;;;;53.58;35.22;;;;;;;;;;5013306;28;20050;-73
2021/03/11 09:12:08;;;;;;;62.95;36.03;;;;;;;;;;5013321;28;20368;-71
2021/03/11 09:14:34;;;;;;;74.07;37.35;;;;;;;;;;5011890;28;20018;-73
2021/03/11 09:17:08;;;;;;;65.93;37.53;;;;;;;;;;5003971;28;20033;-71
2021/03/11 09:19:35;;;;;;;61.58;38.15;;;;;;;;;;5007916;28;20021;-69
2021/03/11 09:22:01;;;;;;;66.07;39.90;;;;;;;;;;4995730;28;20026;-69
2021/03/11 09:24:28;;;;;;;66.82;39.25;;;;;;;;;;5012601;28;20624;-71
2021/03/11 09:26:54;;;;;;;50.85;30.50;;;;;;;;;;4995824;28;20026;-72
2021/03/11 09:29:20;;;;;;;42.10;28.27;;;;;;;;;;5013174;28;20042;-71
2021/03/11 09:31:47;;;;;;;44.45;27.90;;;;;;;;;;5013340;28;20056;-69
2021/03/11 09:34:13;;;;;;;42.70;26.25;;;;;;;;;;4995910;28;20474;-69
2021/03/11 09:36:46;;;;;;;40.05;23.90;;;;;;;;;;5012882;28;20034;-70
2021/03/11 09:39:12;;;;;;;37.20;22.90;;;;;;;;;;4995922;28;20028;-71
2021/03/11 09:41:38;;;;;;;42.22;25.05;;;;;;;;;;5006769;28;20045;-73
2021/03/11 09:44:08;;;;;;;34.28;21.65;;;;;;;;;;5002625;28;20073;-71
2021/03/11 09:46:35;;;;;;;42.97;27.42;;;;;;;;;;4988911;28;20538;-73
2021/03/11 09:49:01;;;;;;;41.00;26.47;;;;;;;;;;4998219;28;20109;-73
2021/03/11 09:51:28;;;;;;;38.58;22.92;;;;;;;;;;4981074;28;20113;-72
2021/03/11 09:53:58;;;;;;;46.13;28.92;;;;;;;;;;4979899;28;20084;-74
2021/03/11 09:56:29;;;;;;;51.92;30.92;;;;;;;;;;4979674;28;20054;-72
2021/03/11 09:59:05;;;;;;;35.17;22.75;;;;;;;;;;4995777;28;20060;-71
2021/03/11 10:01:36;;;;;;;32.72;20.20;;;;;;;;;;4999700;28;20018;-69
2021/03/11 10:04:11;;;;;;;35.95;23.98;;;;;;;;;;4998834;28;20033;-71
2021/03/11 10:06:38;;;;;;;37.00;23.38;;;;;;;;;;5016755;28;20022;-72
2021/03/11 10:09:04;;;;;;;31.50;21.50;;;;;;;;;;4998735;28;20022;-72
2021/03/11 10:12:03;;;;;;;33.55;19.73;;;;;;;;;;4998487;28;20018;-70
2021/03/11 10:14:30;;;;;;;29.35;19.25;;;;;;;;;;4946559;28;20108;-73
2021/03/11 10:17:03;;;;;;;53.50;27.73;;;;;;;;;;4998934;28;20026;-73
2021/03/11 10:19:30;;;;;;;37.25;19.75;;;;;;;;;;5010232;28;20014;-73
2021/03/11 10:22:03;;;;;;;30.95;18.40;;;;;;;;;;5016192;28;20475;-71
2021/03/11 10:24:50;;;;;;;29.52;18.92;;;;;;;;;;5016053;28;20075;-69
2021/03/11 10:27:16;;;;;;;51.67;28.50;;;;;;;;;;5016152;28;20018;-69
2021/03/11 10:29:42;;;;;;;30.57;17.83;;;;;;;;;;5015983;28;20037;-68
2021/03/11 10:32:08;;;;;;;40.80;21.88;;;;;;;;;;5015435;28;20041;-69
2021/03/11 10:34:51;;;;;;;46.72;23.67;;;;;;;;;;4998568;28;20367;-71
2021/03/11 10:37:27;;;;;;;71.68;34.67;;;;;;;;;;4998706;28;20029;-71
2021/03/11 10:39:55;;;;;;;35.40;21.13;;;;;;;;;;5016131;28;20021;-72
2021/03/11 10:42:21;;;;;;;29.25;20.48;;;;;;;;;;4998412;28;20061;-70
2021/03/11 10:44:58;;;;;;;25.85;17.63;;;;;;;;;;5015959;28;20030;-69
2021/03/11 10:47:24;;;;;;;49.53;30.13;;;;;;;;;;5015690;28;20018;-69
2021/03/11 10:49:50;;;;;;;32.35;16.17;;;;;;;;;;5015690;28;20018;-71
2021/03/11 10:52:17;;;;;;;33.53;18.83;;;;;;;;;;4998248;28;20056;-73
2021/03/11 10:54:44;;;;;;;40.85;23.35;;;;;;;;;;5016008;28;20025;-73
2021/03/11 10:57:14;;;;;;;31.40;22.30;;;;;;;;;;4998067;28;20105;-74
2021/03/11 10:59:48;;;;;;;32.72;19.10;;;;;;;;;;4997673;28;20119;-71
2021/03/11 11:02:14;;;;;;;21.75;14.68;;;;;;;;;;4998065;28;20463;-73
2021/03/11 11:04:41;;;;;;;28.73;16.95;;;;;;;;;;5015600;28;20076;-73
2021/03/11 11:07:07;;;;;;;21.50;14.93;;;;;;;;;;5015675;28;20024;-70
2021/03/11 11:09:33;;;;;;;24.23;16.08;;;;;;;;;;4997727;28;20026;-69
2021/03/11 11:12:00;;;;;;;51.33;25.92;;;;;;;;;;4997578;28;20030;-70
2021/03/11 11:14:26;;;;;;;31.10;16.13;;;;;;;;;;4997771;28;20025;-69
2021/03/11 11:16:52;;;;;;;30.83;18.63;;;;;;;;;;5015558;28;20018;-69
2021/03/11 11:19:18;;;;;;;64.88;36.55;;;;;;;;;;4997444;28;20045;-70
2021/03/11 11:21:44;;;;;;;86.75;55.40;;;;;;;;;;4997621;28;20397;-71
2021/03/11 11:24:10;;;;;;;47.30;28.98;;;;;;;;;;4997148;28;20022;-71
2021/03/11 11:26:36;;;;;;;51.40;28.20;;;;;;;;;;4997717;28;20018;-70
2021/03/11 11:29:05;;;;;;;41.60;25.60;;;;;;;;;;5015094;28;20041;-71
2021/03/11 11:31:32;;;;;;;46.15;24.65;;;;;;;;;;5014873;28;20029;-70
2021/03/11 11:33:58;;;;;;;29.47;18.03;;;;;;;;;;5014880;28;20487;-72
2021/03/11 11:36:24;;;;;;;32.50;20.05;;;;;;;;;;4997427;28;20053;-72
2021/03/11 11:38:51;;;;;;;28.63;19.05;;;;;;;;;;4997173;28;20018;-71
2021/03/11 11:41:18;;;;;;;39.92;23.05;;;;;;;;;;5015271;28;20041;-71
2021/03/11 11:43:44;;;;;;;38.38;22.88;;;;;;;;;;5014155;28;20022;-71
2021/03/11 11:46:11;;;;;;;21.58;15.63;;;;;;;;;;5014131;28;20029;-71
2021/03/11 11:48:37;;;;;;;26.00;15.05;;;;;;;;;;4997263;28;20028;-71
2021/03/11 11:51:04;;;;;;;38.42;24.10;;;;;;;;;;5014468;28;20076;-72
2021/03/11 11:53:30;;;;;;;31.75;17.25;;;;;;;;;;4996753;28;20022;-72
2021/03/11 11:55:56;;;;;;;34.42;22.20;;;;;;;;;;5014447;28;20022;-71
2021/03/11 11:58:23;;;;;;;36.50;17.35;;;;;;;;;;4996955;28;20455;-71
2021/03/11 12:00:49;;;;;;;50.10;28.83;;;;;;;;;;4996905;28;20017;-71
2021/03/11 12:03:15;;;;;;;112.50;51.80;;;;;;;;;;4996990;28;20060;-72
2021/03/11 12:05:42;;;;;;;79.93;39.70;;;;;;;;;;5013719;28;20018;-72
2021/03/11 12:08:08;;;;;;;69.45;35.47;;;;;;;;;;4996446;28;20340;-73
2021/03/11 12:10:35;;;;;;;45.88;26.65;;;;;;;;;;4977047;28;20514;-73
2021/03/11 12:13:02;;;;;;;63.83;29.88;;;;;;;;;;4993613;28;20066;-73
2021/03/11 12:15:28;;;;;;;94.30;41.92;;;;;;;;;;4993242;28;20411;-74
2021/03/11 12:17:54;;;;;;;56.15;26.58;;;;;;;;;;4995150;28;20481;-73
2021/03/11 12:20:20;;;;;;;62.40;28.88;;;;;;;;;;4996312;28;20117;-73
2021/03/11 12:22:46;;;;;;;56.65;22.88;;;;;;;;;;4996695;28;20065;-74
2021/03/11 12:25:13;;;;;;;58.20;27.63;;;;;;;;;;5013957;28;20371;-75
2021/03/11 12:27:39;;;;;;;30.45;16.75;;;;;;;;;;4996382;28;20463;-74
2021/03/11 12:30:05;;;;;;;87.75;38.30;;;;;;;;;;4996003;28;20095;-73
2021/03/11 12:32:31;;;;;;;48.72;24.45;;;;;;;;;;5013489;28;20040;-75
2021/03/11 12:34:57;;;;;;;29.35;17.20;;;;;;;;;;4996221;28;20013;-71
2021/03/11 12:37:23;;;;;;;68.55;34.90;;;;;;;;;;4996457;28;20022;-73
2021/03/11 12:39:50;;;;;;;44.95;23.90;;;;;;;;;;5014092;28;20022;-73
2021/03/11 12:42:16;;;;;;;28.73;17.65;;;;;;;;;;5013384;28;20080;-74
2021/03/11 12:44:42;;;;;;;38.50;20.60;;;;;;;;;;4996461;28;20340;-74
2021/03/11 12:47:08;;;;;;;53.40;25.55;;;;;;;;;;5013737;28;20021;-73
2021/03/11 12:49:34;;;;;;;95.60;46.55;;;;;;;;;;5013747;28;20029;-74
2021/03/11 12:52:00;;;;;;;120.65;56.22;;;;;;;;;;5013675;28;20030;-74
2021/03/11 12:54:26;;;;;;;57.05;33.38;;;;;;;;;;5013836;28;20018;-74
2021/03/11 12:56:52;;;;;;;94.30;46.72;;;;;;;;;;4995593;28;20521;-74
2021/03/11 12:59:20;;;;;;;46.10;20.25;;;;;;;;;;5013722;28;20076;-72
2021/03/11 13:01:46;;;;;;;;;;;;;;;;;;4996721;28;20057;-73
2021/03/11 13:04:12;;;;;;;33.50;21.17;;;;;;;;;;4995820;28;19902;-73
2021/03/11 13:06:38;;;;;;;33.00;19.10;;;;;;;;;;4996247;28;20105;-75
2021/03/11 13:09:05;;;;;;;30.02;19.83;;;;;;;;;;5012928;28;20129;-72
2021/03/11 13:11:31;;;;;;;23.33;13.35;;;;;;;;;;5013750;28;20069;-71
2021/03/11 13:13:57;;;;;;;27.45;16.27;;;;;;;;;;5013244;28;20025;-72
2021/03/11 13:16:23;;;;;;;27.52;15.20;;;;;;;;;;4995717;28;20263;-74
2021/03/11 13:18:50;;;;;;;35.72;15.63;;;;;;;;;;4996116;28;20037;-76
2021/03/11 13:21:16;;;;;;;28.00;13.23;;;;;;;;;;4996175;28;20454;-72
2021/03/11 13:23:43;;;;;;;16.70;12.77;;;;;;;;;;4999759;28;20034;-73
2021/03/11 13:26:10;;;;;;;20.70;12.20;;;;;;;;;;4999857;28;20254;-73
2021/03/11 13:28:36;;;;;;;27.87;15.13;;;;;;;;;;4999633;28;20046;-72
2021/03/11 13:31:02;;;;;;;30.70;16.52;;;;;;;;;;4999621;28;20423;-68
2021/03/11 13:33:28;;;;;;;26.98;14.93;;;;;;;;;;5017330;28;20116;-70
2021/03/11 13:35:58;;;;;;;24.90;14.02;;;;;;;;;;5017116;28;20097;-70
2021/03/11 13:38:25;;;;;;;23.38;14.50;;;;;;;;;;5017166;28;20030;-71
2021/03/11 13:40:51;;;;;;;33.08;12.90;;;;;;;;;;5017277;28;20071;-70
2021/03/11 13:43:18;;;;;;;16.93;12.47;;;;;;;;;;5016866;28;20359;-69
2021/03/11 13:45:45;;;;;;;23.70;14.85;;;;;;;;;;5010298;28;20636;-68
2021/03/11 13:48:11;;;;;;;;;;;;;;;;;;5005477;28;20017;-69
2021/03/11 13:50:38;;;;;;;24.35;14.63;;;;;;;;;;5005377;28;19905;-75
2021/03/11 13:53:04;;;;;;;31.33;17.00;;;;;;;;;;4988985;28;20088;-71
2021/03/11 13:55:31;;;;;;;25.17;17.38;;;;;;;;;;5004599;28;20360;-73
2021/03/11 13:57:57;;;;;;;27.92;16.42;;;;;;;;;;5005498;28;20014;-74
2021/03/11 14:00:23;;;;;;;23.98;14.77;;;;;;;;;;4988833;28;20459;-74
2021/03/11 14:02:50;;;;;;;29.85;17.80;;;;;;;;;;4987996;28;20023;-76
2021/03/11 14:05:17;;;;;;;30.48;17.38;;;;;;;;;;5005578;28;20105;-73
2021/03/11 14:07:43;;;;;;;37.05;20.48;;;;;;;;;;5005834;28;20030;-68
2021/03/11 14:10:09;;;;;;;32.63;18.60;;;;;;;;;;4997119;28;20026;-74
2021/03/11 14:12:36;;;;;;;29.00;13.65;;;;;;;;;;4982802;28;20030;-71
2021/03/11 14:15:02;;;;;;;23.23;15.27;;;;;;;;;;4981401;28;20467;-76
2021/03/11 14:17:28;;;;;;;18.07;11.90;;;;;;;;;;4979485;28;20034;-85
2021/03/11 14:19:54;;;;;;;29.17;17.98;;;;;;;;;;4976470;28;20085;-76
2021/03/11 14:22:20;;;;;;;25.98;17.08;;;;;;;;;;5014149;28;20482;-74
2021/03/11 14:24:47;;;;;;;33.03;19.52;;;;;;;;;;4996985;28;20364;-78